Flight Track Log - Related Links

Times and Time Zones

All times are in EDT time to prevent confusion due to time zone crossing. See the ASH2783 flight status page for this flight to view local times or setup timezone preferences in your user account.

Time Position Orientation Groundspeed Altitude Reporting Facility
EDT Latitude Longitude Course Direction KTS MPH feet Rate Location/Type
Tue 04:29:53 PM 40.0033 -82.9183 179° South 151 174 1,400  Level Indianapolis Center
Tue 04:30:57 PM 40.0119 -82.9853 280° West 188 216 3,700 1,952 Climbing Indianapolis Center
Tue 04:31:59 PM 40.0003 -83.0683 260° West 235 270 5,500 2,434 Climbing Indianapolis Center
Tue 04:32:43 PM 39.9400 -83.0556 171° South 284 327 8,000 3,000 Climbing Indianapolis Center
Tue 04:33:00 PM 39.6483 -82.7412 169° South  Level Estimated
Tue 04:33:01 PM 39.9281 -83.0464 150° Southeast 272 313 8,600  Level Indianapolis Center
Tue 04:34:00 PM 39.5611 -82.7037 163° South  Level Estimated
Tue 04:34:03 PM 39.8525 -82.9922 151° Southeast 298 343 10,000  Level Indianapolis Center
Tue 04:35:00 PM 39.4692 -82.7010 179° South  Level FlightAware Approximate
Tue 04:35:05 PM 39.7433 -82.9172 152° Southeast 360 414 13,000  Level Indianapolis Center
Tue 04:36:07 PM 39.6531 -82.8539 152° Southeast 362 417 15,000 1,935 Climbing Indianapolis Center
Tue 04:37:09 PM 39.5592 -82.7908 153° Southeast 370 426 17,000 1,839 Climbing Indianapolis Center
Tue 04:38:11 PM 39.4550 -82.7494 163° South 385 443 18,800 1,694 Climbing Indianapolis Center
Tue 04:39:13 PM 39.3444 -82.7261 171° South 395 455 20,500 1,584 Climbing Indianapolis Center
Tue 04:40:16 PM 39.2300 -82.7022 171° South 404 465 22,100 1,200 Climbing Indianapolis Center
Tue 04:41:18 PM 39.0908 -82.6722 171° South 416 479 23,000 435 Climbing Indianapolis Center
Tue 04:42:20 PM 38.9739 -82.6489 171° South 423 487 23,000  Level Indianapolis Center
Tue 04:43:22 PM 38.8575 -82.6244 171° South 423 487 23,000  Level Indianapolis Center
Tue 04:44:24 PM 38.7436 -82.5992 170° South 422 486 23,000  Level Indianapolis Center
Tue 04:45:26 PM 38.6222 -82.5750 171° South 414 476 23,000  Level Indianapolis Center
Tue 04:46:28 PM 38.5092 -82.5500 170° South 413 475 23,000  Level Indianapolis Center
Tue 04:48:32 PM 38.2847 -82.5050 171° South 410 472 23,000  Level Indianapolis Center
Tue 04:49:35 PM 38.1619 -82.4778 170° South 410 472 23,000  Level Indianapolis Center
Tue 04:50:37 PM 38.0408 -82.4528 171° South 409 471 23,000  Level Indianapolis Center
Tue 04:51:39 PM 37.9253 -82.4308 171° South 413 475 23,000  Level Indianapolis Center
Tue 04:52:41 PM 37.8064 -82.4050 170° South 424 488 23,000  Level Indianapolis Center
Tue 04:53:43 PM 37.6858 -82.3800 171° South 431 496 23,000  Level Indianapolis Center
Tue 04:54:45 PM 37.5428 -82.3519 171° South 438 504 23,000  Level Indianapolis Center
Tue 04:55:47 PM 37.4192 -82.3258 170° South 442 509 23,000  Level Indianapolis Center
Tue 04:56:49 PM 37.2958 -82.3014 171° South 442 509 23,000  Level Indianapolis Center
Tue 04:57:51 PM 37.1722 -82.2758 171° South 443 510 23,000  Level Indianapolis Center
Tue 04:58:53 PM 37.0483 -82.2508 171° South 443 510 23,000  Level Indianapolis Center
Tue 04:59:56 PM 36.9261 -82.2264 171° South 444 511 23,000  Level Indianapolis Center
Tue 05:00:58 PM 36.8119 -82.2042 171° South 422 486 23,000  Level Indianapolis Center
Tue 05:02:00 PM 36.6775 -82.1767 171° South 417 480 23,000  Level Indianapolis Center
Tue 05:02:33 PM 36.6111 -82.1636 171° South 424 488 23,000  Level Atlanta Center
Tue 05:03:33 PM 36.4942 -82.1406 171° South 429 494 23,000  Level Atlanta Center
Tue 05:04:33 PM 36.3808 -82.0969 163° South 429 494 23,000  Level Atlanta Center
Tue 05:05:33 PM 36.2794 -82.0272 151° Southeast 424 488 23,000 -550 Level Atlanta Center
Tue 05:06:33 PM 36.1931 -81.9675 151° Southeast 413 475 21,900 -1,800 Descending Atlanta Center
Tue 05:07:33 PM 36.0939 -81.9033 152° Southeast 408 470 19,400 -2,400 Descending Atlanta Center
Tue 05:08:33 PM 35.9925 -81.8367 152° Southeast 408 470 17,100 -2,150 Descending Atlanta Center
Tue 05:09:33 PM 35.8978 -81.7778 153° Southeast 400 460 15,100 -2,000 Descending Atlanta Center
Tue 05:10:33 PM 35.8111 -81.7214 152° Southeast 378 435 13,100 -2,147 Descending Atlanta Center
Tue 05:11:08 PM 35.7497 -81.6794 151° Southeast 341 392 11,700 -1,846 Descending Atlanta Center
Tue 05:11:38 PM 35.7119 -81.6578 155° Southeast 338 389 11,100 -494 Descending Atlanta Center
Tue 05:12:33 PM 35.6483 -81.6161 152° Southeast 336 387 11,000 -52 Descending Atlanta Center
Tue 05:13:33 PM 35.5847 -81.5542 142° Southeast 311 358 11,000 -344 Level Atlanta Center
Tue 05:14:35 PM 35.5553 -81.4453 108° East 287 330 10,300 -1,050 Descending Atlanta Center
Tue 05:15:33 PM 35.5283 -81.3619 112° Southeast 274 315 8,900 -1,475 Descending Atlanta Center
Tue 05:16:33 PM 35.5014 -81.2683 109° East 279 321 7,400 -1,457 Descending Atlanta Center
Tue 05:16:43 PM 35.4989 -81.2558 104° East 282 325 7,200 -1,600 Descending Atlanta Center
Tue 05:17:33 PM 35.4825 -81.1772 104° East 279 321 5,800 -1,574 Descending Atlanta Center
Tue 05:17:44 PM 35.4800 -81.1619 101° East 279 321 5,600 -800 Descending Atlanta Center
Tue 05:18:33 PM 35.4636 -81.0886 105° East 279 321 5,000 -590 Descending Atlanta Center
Tue 05:18:45 PM 35.4614 -81.0733 100° East 249 287 5,000 -100 Level Atlanta Center
Tue 05:19:33 PM 35.4392 -81.0206 117° Southeast 249 287 4,900 -500 Descending Atlanta Center
Tue 05:19:45 PM 35.4286 -81.0133 151° Southeast 206 237 4,500 -1,700 Descending Atlanta Center
Tue 05:20:33 PM 35.3881 -80.9792 146° Southeast 214 246 3,200 -1,475 Descending Atlanta Center
Tue 05:20:46 PM 35.3756 -80.9847 200° South 225 259 3,000 -353 Descending Atlanta Center
Tue 05:21:41 PM 35.3317 -80.9786 174° South 162 186 2,800 -466 Descending Atlanta Center
Tue 05:22:42 PM 35.2900 -80.9753 176° South 135 155 2,100 -797 Descending Atlanta Center
Tue 05:23:49 PM 35.2419 -80.9719 177° South 150 173 1,100 -896 Descending Atlanta Center
Tue 05:25:00 PM 35.2137 -80.9491 180° South  Level Estimated
Tue 05:32:00 PM 35.2137 -80.9491 North  Level Estimated

Login

Don't have an account? Register now (free) for customized features, flight alerts, and more!